createdAt,value
2018-08-07T00:01:35.939Z,65.00
2018-08-07T00:04:05.303Z,62.82
2018-08-07T00:06:34.774Z,64.43
2018-08-07T00:09:05.211Z,66.47
2018-08-07T00:11:35.500Z,67.18
2018-08-07T00:14:04.895Z,66.24
2018-08-07T00:16:34.211Z,67.98
2018-08-07T00:19:03.582Z,67.19
2018-08-07T00:21:32.931Z,67.54
2018-08-07T00:24:02.439Z,67.15
2018-08-07T00:26:31.755Z,67.44
2018-08-07T00:29:01.107Z,68.03
2018-08-07T00:31:30.534Z,68.25
2018-08-07T00:34:00.009Z,69.08
2018-08-07T00:36:29.471Z,69.15
2018-08-07T00:38:58.811Z,69.76
2018-08-07T00:41:28.419Z,68.78
2018-08-07T00:43:57.899Z,69.90
2018-08-07T00:46:27.411Z,70.96
2018-08-07T00:48:56.814Z,69.60
2018-08-07T00:51:26.191Z,71.65
2018-08-07T00:53:55.602Z,72.45
2018-08-07T00:56:24.979Z,72.64
2018-08-07T00:58:54.535Z,73.37
2018-08-07T01:01:23.833Z,73.61
2018-08-07T01:03:53.336Z,75.68
2018-08-07T01:06:22.744Z,74.47
2018-08-07T01:08:52.128Z,74.91
2018-08-07T01:11:21.544Z,73.61
2018-08-07T01:13:50.995Z,74.51
2018-08-07T01:16:20.341Z,74.18
2018-08-07T01:18:49.843Z,74.13
2018-08-07T01:21:19.478Z,74.09
2018-08-07T01:23:48.763Z,74.64
2018-08-07T01:26:18.077Z,71.14
2018-08-07T01:28:47.192Z,72.13
2018-08-07T01:31:16.622Z,73.83
2018-08-07T01:33:45.922Z,74.17
2018-08-07T01:36:15.343Z,75.43
2018-08-07T01:38:44.696Z,76.09
2018-08-07T01:41:14.072Z,75.89
2018-08-07T01:43:43.430Z,73.12
2018-08-07T01:46:13.046Z,74.07
2018-08-07T01:48:42.429Z,73.96
2018-08-07T01:51:11.815Z,74.05
2018-08-07T01:53:41.229Z,74.14
2018-08-07T01:56:10.515Z,75.90
2018-08-07T01:58:39.946Z,76.85
2018-08-07T02:01:09.282Z,76.89
2018-08-07T02:03:38.663Z,77.72
2018-08-07T02:06:08.071Z,76.96
2018-08-07T02:08:37.432Z,77.87
2018-08-07T02:11:07.025Z,77.82
2018-08-07T02:13:36.340Z,77.73
2018-08-07T02:16:05.813Z,76.67
2018-08-07T02:18:35.195Z,77.73
2018-08-07T02:21:04.524Z,77.06
2018-08-07T02:23:33.862Z,77.22
2018-08-07T02:26:03.250Z,77.46
2018-08-07T02:28:32.611Z,77.22
2018-08-07T02:31:01.962Z,77.44
2018-08-07T02:33:31.266Z,76.41
2018-08-07T02:36:00.639Z,76.58
2018-08-07T02:38:29.939Z,75.43
2018-08-07T02:40:59.266Z,74.81
2018-08-07T02:43:28.548Z,73.42
2018-08-07T02:45:57.920Z,72.86
2018-08-07T02:48:27.265Z,74.72
2018-08-07T02:50:56.657Z,74.54
2018-08-07T02:53:25.972Z,75.75
2018-08-07T02:55:55.391Z,76.61
2018-08-07T02:58:24.699Z,74.82
2018-08-07T03:00:53.979Z,73.53
2018-08-07T03:03:23.280Z,73.55
2018-08-07T03:05:52.551Z,74.14
2018-08-07T03:08:21.851Z,74.94
2018-08-07T03:10:51.136Z,75.41
2018-08-07T03:13:20.467Z,72.77
2018-08-07T03:15:49.935Z,74.65
2018-08-07T03:18:19.235Z,75.12
2018-08-07T03:20:50.576Z,75.98
2018-08-07T03:23:19.924Z,76.38
2018-08-07T03:25:51.983Z,76.05
2018-08-07T03:28:22.273Z,72.90
2018-08-07T03:30:52.052Z,71.92
2018-08-07T03:33:21.399Z,72.36
2018-08-07T03:35:50.757Z,72.74
2018-08-07T03:38:20.084Z,73.82
2018-08-07T03:40:49.416Z,73.96
2018-08-07T03:43:18.510Z,74.38
2018-08-07T03:45:47.947Z,73.99
2018-08-07T03:48:17.198Z,74.32
2018-08-07T03:50:46.584Z,73.03
2018-08-07T03:53:15.911Z,74.35
2018-08-07T03:55:45.226Z,75.88
2018-08-07T03:58:14.545Z,75.95
2018-08-07T04:00:47.732Z,75.99
2018-08-07T04:03:17.907Z,76.74
2018-08-07T04:05:47.288Z,77.18
2018-08-07T04:08:16.642Z,75.22
2018-08-07T04:10:45.917Z,73.86
2018-08-07T04:13:15.269Z,75.15
2018-08-07T04:15:44.592Z,73.51
2018-08-07T04:18:13.902Z,73.43
2018-08-07T04:20:43.209Z,73.48
2018-08-07T04:23:12.692Z,73.30
2018-08-07T04:25:41.952Z,75.30
2018-08-07T04:28:11.263Z,75.81
2018-08-07T04:31:11.717Z,75.80
2018-08-07T04:33:41.055Z,76.19
2018-08-07T04:36:10.480Z,76.40
2018-08-07T04:38:39.945Z,75.81
2018-08-07T04:41:09.373Z,75.04
2018-08-07T04:43:38.772Z,72.18
2018-08-07T04:46:08.102Z,74.28
2018-08-07T04:48:37.506Z,74.81
2018-08-07T04:51:06.913Z,75.07
2018-08-07T04:53:36.287Z,72.16
2018-08-07T04:56:05.821Z,70.98
2018-08-07T04:58:35.144Z,71.01
2018-08-07T05:01:04.497Z,71.03
2018-08-07T05:03:33.892Z,70.39
2018-08-07T05:06:03.303Z,71.04
2018-08-07T05:08:32.706Z,70.82
2018-08-07T05:11:02.120Z,70.72
2018-08-07T05:13:31.589Z,70.25
2018-08-07T05:16:01.003Z,68.71
2018-08-07T05:18:30.332Z,70.91
2018-08-07T05:20:59.677Z,70.00
2018-08-07T05:23:29.036Z,71.11
2018-08-07T05:25:58.329Z,70.66
2018-08-07T05:28:27.792Z,72.25
2018-08-07T05:30:57.223Z,72.10
2018-08-07T05:33:26.538Z,69.70
2018-08-07T05:35:56.096Z,65.79
2018-08-07T05:38:25.408Z,64.62
2018-08-07T05:40:54.949Z,64.01
2018-08-07T05:43:24.300Z,63.58
2018-08-07T05:45:53.662Z,63.76
2018-08-07T05:48:22.978Z,63.42
2018-08-07T05:50:52.533Z,61.53
2018-08-07T05:53:21.619Z,61.58
2018-08-07T05:55:51.311Z,62.14
2018-08-07T05:58:20.739Z,61.92
2018-08-07T06:00:50.133Z,61.92
2018-08-07T06:03:19.584Z,61.78
2018-08-07T06:05:49.009Z,61.73
2018-08-07T06:08:18.422Z,63.39
2018-08-07T06:10:47.783Z,60.44
2018-08-07T06:13:17.063Z,58.45
2018-08-07T06:15:46.428Z,56.66
2018-08-07T06:18:15.767Z,54.84
2018-08-07T06:20:45.042Z,53.95
2018-08-07T06:23:14.362Z,54.17
2018-08-07T06:25:43.744Z,52.81
2018-08-07T06:28:13.086Z,51.23
2018-08-07T06:30:42.439Z,48.46
2018-08-07T06:33:11.712Z,46.53
2018-08-07T06:35:42.478Z,44.66
2018-08-07T06:38:11.751Z,40.27
2018-08-07T06:40:41.011Z,32.42
2018-08-07T06:43:10.313Z,29.40
2018-08-07T06:45:39.599Z,30.12
2018-08-07T06:48:08.979Z,28.07
2018-08-07T06:50:38.278Z,27.00
2018-08-07T06:53:07.959Z,27.53
2018-08-07T06:55:37.332Z,29.42
2018-08-07T06:58:07.614Z,27.88
2018-08-07T07:00:38.200Z,29.64
2018-08-07T07:03:07.535Z,33.33
2018-08-07T07:05:36.816Z,35.20
2018-08-07T07:08:06.195Z,38.75
2018-08-07T07:10:35.470Z,40.77
2018-08-07T07:13:04.988Z,41.02
2018-08-07T07:15:34.280Z,40.51
2018-08-07T07:18:03.602Z,41.50
2018-08-07T07:20:32.981Z,40.32
2018-08-07T07:23:02.286Z,37.71
2018-08-07T07:25:31.622Z,34.28
2018-08-07T07:28:00.938Z,28.78
2018-08-07T07:30:30.287Z,25.96
2018-08-07T07:32:59.536Z,21.77
2018-08-07T07:35:28.829Z,19.53
2018-08-07T07:37:58.254Z,18.21
2018-08-07T07:40:27.591Z,20.23
2018-08-07T07:42:56.928Z,20.71
2018-08-07T07:45:26.331Z,18.91
2018-08-07T07:47:55.861Z,18.54
2018-08-07T07:50:25.301Z,17.20
2018-08-07T07:52:54.570Z,17.79
2018-08-07T07:55:23.956Z,18.26
2018-08-07T07:57:53.246Z,17.57
2018-08-07T08:00:26.257Z,18.15
2018-08-07T08:02:55.603Z,17.87
2018-08-07T08:05:26.326Z,14.95
2018-08-07T08:07:56.176Z,14.74
2018-08-07T08:10:25.645Z,16.47
2018-08-07T08:12:55.000Z,15.19
2018-08-07T08:15:24.364Z,14.06
2018-08-07T08:17:53.728Z,17.02
2018-08-07T08:20:24.266Z,14.97
2018-08-07T08:22:54.439Z,16.54
2018-08-07T08:25:23.709Z,16.71
2018-08-07T08:27:52.991Z,16.53
2018-08-07T08:30:22.346Z,18.67
2018-08-07T08:32:51.618Z,15.18
2018-08-07T08:35:21.151Z,13.83
2018-08-07T08:37:50.715Z,15.47
2018-08-07T08:40:23.053Z,17.90
2018-08-07T08:42:52.536Z,18.37
2018-08-07T08:45:25.217Z,20.82
2018-08-07T08:47:59.381Z,19.35
2018-08-07T08:50:28.975Z,18.03
2018-08-07T08:52:58.259Z,15.90
2018-08-07T08:55:27.576Z,17.73
2018-08-07T08:57:56.942Z,18.19
2018-08-07T09:00:29.224Z,17.08
2018-08-07T09:03:00.547Z,19.16
2018-08-07T09:05:30.897Z,18.92
2018-08-07T09:08:00.275Z,19.46
2018-08-07T09:10:31.374Z,15.80
2018-08-07T09:13:01.873Z,16.14
2018-08-07T09:15:31.277Z,18.74
2018-08-07T09:18:00.615Z,14.70
2018-08-07T09:20:31.632Z,15.48
2018-08-07T09:23:00.974Z,16.00
2018-08-07T09:25:31.368Z,17.50
2018-08-07T09:28:00.649Z,16.71
2018-08-07T09:30:30.944Z,18.12
2018-08-07T09:33:00.702Z,17.65
2018-08-07T09:35:30.036Z,18.01
2018-08-07T09:37:59.728Z,17.33
2018-08-07T09:40:29.072Z,18.40
2018-08-07T09:42:58.589Z,18.96
2018-08-07T09:45:31.658Z,20.17
2018-08-07T09:48:02.342Z,21.35
2018-08-07T09:50:32.522Z,18.25
2018-08-07T09:53:01.910Z,19.24
2018-08-07T09:55:31.549Z,20.05
2018-08-07T09:58:01.015Z,18.88
2018-08-07T10:00:35.536Z,20.13
2018-08-07T10:03:09.907Z,19.67
2018-08-07T10:05:39.306Z,19.25
2018-08-07T10:08:08.857Z,19.86
2018-08-07T10:10:38.260Z,18.07
2018-08-07T10:13:07.827Z,21.56
2018-08-07T10:15:37.151Z,20.54
2018-08-07T10:18:06.672Z,21.38
2018-08-07T10:20:35.988Z,19.23
2018-08-07T10:23:05.343Z,21.34
2018-08-07T10:25:34.613Z,20.10
2018-08-07T10:28:03.898Z,17.36
2018-08-07T10:30:33.202Z,19.73
2018-08-07T10:33:02.554Z,19.58
2018-08-07T10:35:31.967Z,17.19
2018-08-07T10:38:01.230Z,18.96
2018-08-07T10:40:30.703Z,21.72
2018-08-07T10:42:59.962Z,20.71
2018-08-07T10:45:29.325Z,21.17
2018-08-07T10:47:58.646Z,22.80
2018-08-07T10:50:29.900Z,24.00
2018-08-07T10:52:59.728Z,22.72
2018-08-07T10:55:29.033Z,23.15
2018-08-07T10:58:00.109Z,20.77
2018-08-07T11:00:31.258Z,19.38
2018-08-07T11:03:00.758Z,22.57
2018-08-07T11:05:30.544Z,21.06
2018-08-07T11:08:00.138Z,21.98
2018-08-07T11:10:29.488Z,21.85
2018-08-07T11:12:58.862Z,23.53
2018-08-07T11:15:32.028Z,20.89
2018-08-07T11:18:02.137Z,19.71
2018-08-07T11:20:31.708Z,21.64
2018-08-07T11:23:02.067Z,22.09
2018-08-07T11:25:32.073Z,22.63
2018-08-07T11:28:02.007Z,22.96
2018-08-07T11:30:31.603Z,21.67
2018-08-07T11:33:01.925Z,20.49
2018-08-07T11:35:31.267Z,21.63
2018-08-07T11:38:03.246Z,18.17
2018-08-07T11:40:32.563Z,18.36
2018-08-07T11:43:01.934Z,21.48
2018-08-07T11:45:31.739Z,21.89
2018-08-07T11:48:01.073Z,24.22
2018-08-07T11:50:32.230Z,23.78
2018-08-07T11:53:01.695Z,26.20
2018-08-07T11:55:30.992Z,23.41
2018-08-07T11:58:00.388Z,23.79
2018-08-07T12:00:33.262Z,25.99
2018-08-07T12:03:02.951Z,26.83
2018-08-07T12:05:32.409Z,25.02
2018-08-07T12:08:01.985Z,26.19
2018-08-07T12:10:31.338Z,25.63
2018-08-07T12:13:00.816Z,25.04
2018-08-07T12:15:30.223Z,25.00
2018-08-07T12:17:59.639Z,22.78
2018-08-07T12:20:29.074Z,22.63
2018-08-07T12:22:58.432Z,25.69
2018-08-07T12:25:27.834Z,21.33
2018-08-07T12:27:57.453Z,22.60
2018-08-07T12:30:28.043Z,21.03
2018-08-07T12:32:57.828Z,22.46
2018-08-07T12:35:27.351Z,22.73
2018-08-07T12:37:56.731Z,22.14
2018-08-07T12:40:29.143Z,22.72
2018-08-07T12:43:03.458Z,21.09
2018-08-07T12:45:33.075Z,23.40
2018-08-07T12:48:02.485Z,24.13
2018-08-07T12:50:31.887Z,24.35
2018-08-07T12:53:01.387Z,24.64
2018-08-07T12:55:30.713Z,25.45
2018-08-07T12:58:00.279Z,27.63
2018-08-07T13:00:31.986Z,26.69
2018-08-07T13:03:01.361Z,26.22
2018-08-07T13:05:30.732Z,27.44
2018-08-07T13:08:00.126Z,24.46
2018-08-07T13:10:29.713Z,26.20
2018-08-07T13:12:59.037Z,25.21
2018-08-07T13:15:28.315Z,25.88
2018-08-07T13:17:57.647Z,27.73
2018-08-07T13:20:27.109Z,28.53
2018-08-07T13:22:56.561Z,29.07
2018-08-07T13:25:25.934Z,30.09
2018-08-07T13:27:55.275Z,29.30
2018-08-07T13:30:26.142Z,28.76
2018-08-07T13:32:55.939Z,29.09
2018-08-07T13:35:25.922Z,29.97
2018-08-07T13:37:55.205Z,31.24
2018-08-07T13:40:25.311Z,30.46
2018-08-07T13:42:54.651Z,30.56
2018-08-07T13:45:26.012Z,28.96
2018-08-07T13:47:55.415Z,29.29
2018-08-07T13:50:26.224Z,30.99
2018-08-07T13:52:55.614Z,29.44
2018-08-07T13:55:25.861Z,29.55
2018-08-07T13:57:55.361Z,29.59
2018-08-07T14:00:26.873Z,28.61
2018-08-07T14:02:58.095Z,30.12
2018-08-07T14:05:28.330Z,30.92
2018-08-07T14:07:58.383Z,30.82
2018-08-07T14:10:29.102Z,30.57
2018-08-07T14:12:59.025Z,30.87
2018-08-07T14:15:29.588Z,31.80
2018-08-07T14:18:00.011Z,31.74
2018-08-07T14:20:29.385Z,31.41
2018-08-07T14:22:58.731Z,32.12
2018-08-07T14:25:29.323Z,32.76
2018-08-07T14:27:58.630Z,31.56
2018-08-07T14:30:29.906Z,32.19
2018-08-07T14:33:03.169Z,30.96
2018-08-07T14:35:32.435Z,32.82
2018-08-07T14:38:01.833Z,32.19
2018-08-07T14:40:31.142Z,33.19
2018-08-07T14:43:00.478Z,33.30
2018-08-07T14:45:30.297Z,35.11
2018-08-07T14:47:59.933Z,38.38
2018-08-07T14:50:30.231Z,39.92
2018-08-07T14:52:59.598Z,42.15
2018-08-07T14:55:29.079Z,41.17
2018-08-07T14:57:58.966Z,41.11
2018-08-07T15:00:29.639Z,40.01
2018-08-07T15:02:58.912Z,39.37
2018-08-07T15:05:28.319Z,38.54
2018-08-07T15:07:57.623Z,38.53
2018-08-07T15:10:27.912Z,38.94
2018-08-07T15:12:57.162Z,39.16
2018-08-07T15:15:29.837Z,38.64
2018-08-07T15:17:59.193Z,38.21
2018-08-07T15:20:30.114Z,38.97
2018-08-07T15:22:59.562Z,38.41
2018-08-07T15:25:28.832Z,38.46
2018-08-07T15:27:58.170Z,39.59
2018-08-07T15:30:28.239Z,37.28
2018-08-07T15:32:57.763Z,40.49
2018-08-07T15:35:28.576Z,37.89
2018-08-07T15:37:59.247Z,40.85
2018-08-07T15:40:28.481Z,40.40
2018-08-07T15:42:57.769Z,36.05
2018-08-07T15:45:27.111Z,35.08
2018-08-07T15:47:56.502Z,34.79
2018-08-07T15:50:26.952Z,36.47
2018-08-07T15:52:56.541Z,39.57
2018-08-07T15:55:27.024Z,34.71
2018-08-07T15:57:56.307Z,36.51
2018-08-07T16:00:28.480Z,35.56
2018-08-07T16:03:00.786Z,35.52
2018-08-07T16:05:31.338Z,36.90
2018-08-07T16:08:00.664Z,36.90
2018-08-07T16:10:30.051Z,37.17
2018-08-07T16:12:59.324Z,37.13
2018-08-07T16:15:28.612Z,38.01
2018-08-07T16:17:57.900Z,39.37
2018-08-07T16:20:27.307Z,40.52
2018-08-07T16:22:57.451Z,37.84
2018-08-07T16:25:26.837Z,38.06
2018-08-07T16:27:56.225Z,37.83
2018-08-07T16:30:27.559Z,38.55
2018-08-07T16:32:56.921Z,36.10
2018-08-07T16:35:26.279Z,36.15
2018-08-07T16:37:55.608Z,35.89
2018-08-07T16:40:25.372Z,35.41
2018-08-07T16:42:55.649Z,36.83
2018-08-07T16:45:25.506Z,35.58
2018-08-07T16:47:54.949Z,35.27
2018-08-07T16:50:27.417Z,35.60
2018-08-07T16:52:57.455Z,35.39
2018-08-07T16:55:28.472Z,36.01
2018-08-07T16:57:57.773Z,37.08
2018-08-07T17:00:27.109Z,37.46
2018-08-07T17:02:56.490Z,38.89
2018-08-07T17:05:25.951Z,38.67
2018-08-07T17:07:55.234Z,39.28
2018-08-07T17:10:26.754Z,38.64
2018-08-07T17:12:56.063Z,38.45
2018-08-07T17:15:25.377Z,39.07
2018-08-07T17:17:54.829Z,38.97
2018-08-07T17:20:24.276Z,39.90
2018-08-07T17:22:54.975Z,41.28
2018-08-07T17:25:24.866Z,42.62
2018-08-07T17:27:54.167Z,43.37
2018-08-07T17:30:26.685Z,44.80
2018-08-07T17:32:56.033Z,44.55
2018-08-07T17:35:26.367Z,44.97
2018-08-07T17:37:57.696Z,45.08
2018-08-07T17:40:28.326Z,44.50
2018-08-07T17:42:57.882Z,43.85
2018-08-07T17:45:27.166Z,43.28
2018-08-07T17:47:56.539Z,44.11
2018-08-07T17:50:27.447Z,44.36
2018-08-07T17:52:58.442Z,44.84
2018-08-07T17:55:27.754Z,44.92
2018-08-07T17:57:58.595Z,45.08
2018-08-07T18:00:27.979Z,45.36
2018-08-07T18:02:57.964Z,45.15
2018-08-07T18:05:27.248Z,45.16
2018-08-07T18:07:57.551Z,45.73
2018-08-07T18:10:26.918Z,45.95
2018-08-07T18:12:56.279Z,47.77
2018-08-07T18:15:26.208Z,50.02
2018-08-07T18:17:55.563Z,49.95
2018-08-07T18:20:26.147Z,51.79
2018-08-07T18:22:56.291Z,54.81
2018-08-07T18:25:25.658Z,54.26
2018-08-07T18:27:55.010Z,54.43
2018-08-07T18:30:25.241Z,54.91
2018-08-07T18:32:54.606Z,53.10
2018-08-07T18:35:25.297Z,52.45
2018-08-07T18:37:54.590Z,52.72
2018-08-07T18:40:23.856Z,53.30
2018-08-07T18:42:53.137Z,53.92
2018-08-07T18:45:22.466Z,53.76
2018-08-07T18:47:51.810Z,54.31
2018-08-07T18:50:22.719Z,55.52
2018-08-07T18:52:52.231Z,57.68
2018-08-07T18:55:21.520Z,61.34
2018-08-07T18:57:51.437Z,61.89
2018-08-07T19:00:22.352Z,63.52
2018-08-07T19:02:51.666Z,64.10
2018-08-07T19:05:22.206Z,63.40
2018-08-07T19:07:51.489Z,63.03
2018-08-07T19:10:20.835Z,63.99
2018-08-07T19:12:50.492Z,64.10
2018-08-07T19:15:20.661Z,61.14
2018-08-07T19:17:50.077Z,63.79
2018-08-07T19:20:20.685Z,64.60
2018-08-07T19:22:50.108Z,65.76
2018-08-07T19:25:20.483Z,66.72
2018-08-07T19:27:49.963Z,67.49
2018-08-07T19:30:21.230Z,67.98
2018-08-07T19:32:50.823Z,68.16
2018-08-07T19:35:20.138Z,68.79
2018-08-07T19:37:49.446Z,69.22
2018-08-07T19:40:19.801Z,68.60
2018-08-07T19:42:49.794Z,67.69
2018-08-07T19:45:19.388Z,68.98
2018-08-07T19:47:48.763Z,70.74
2018-08-07T19:50:19.707Z,71.01
2018-08-07T19:52:48.959Z,71.43
2018-08-07T19:55:20.047Z,70.71
2018-08-07T19:57:49.331Z,70.52
2018-08-07T20:00:23.647Z,70.92
2018-08-07T20:02:53.083Z,71.84
2018-08-07T20:05:22.587Z,72.22
2018-08-07T20:07:52.602Z,73.46
2018-08-07T20:10:22.252Z,74.11
2018-08-07T20:12:51.641Z,75.18
2018-08-07T20:15:23.703Z,74.40
2018-08-07T20:17:53.525Z,75.85
2018-08-07T20:20:23.482Z,75.19
2018-08-07T20:22:52.990Z,75.18
2018-08-07T20:25:22.467Z,72.45
2018-08-07T20:27:51.798Z,72.12
2018-08-07T20:30:22.257Z,71.57
2018-08-07T20:32:53.051Z,71.87
2018-08-07T20:35:22.422Z,74.68
2018-08-07T20:37:51.868Z,75.47
2018-08-07T20:40:24.344Z,75.10
2018-08-07T20:42:54.782Z,73.54
2018-08-07T20:45:24.196Z,76.24
2018-08-07T20:47:53.595Z,77.86
2018-08-07T20:50:26.302Z,77.92
2018-08-07T20:52:56.342Z,78.26
2018-08-07T20:55:25.840Z,78.53
2018-08-07T20:57:55.197Z,77.35
2018-08-07T21:00:25.861Z,78.32
2018-08-07T21:02:55.242Z,78.08
2018-08-07T21:05:24.937Z,79.19
2018-08-07T21:07:54.924Z,79.27
2018-08-07T21:10:26.612Z,78.70
2018-08-07T21:12:56.247Z,78.99
2018-08-07T21:15:25.782Z,78.69
2018-08-07T21:17:55.104Z,76.85
2018-08-07T21:20:24.956Z,79.16
2018-08-07T21:22:54.314Z,80.20
2018-08-07T21:25:24.768Z,80.00
2018-08-07T21:27:55.700Z,80.20
2018-08-07T21:30:26.865Z,80.88
2018-08-07T21:32:56.185Z,81.42
2018-08-07T21:35:25.601Z,79.94
2018-08-07T21:37:54.922Z,79.45
2018-08-07T21:40:24.882Z,80.15
2018-08-07T21:42:55.441Z,80.80
2018-08-07T21:45:24.697Z,81.14
2018-08-07T21:47:54.003Z,79.09
2018-08-07T21:50:24.684Z,79.74
2018-08-07T21:52:53.997Z,79.38
2018-08-07T21:55:23.298Z,79.35
2018-08-07T21:57:52.849Z,80.15
2018-08-07T22:00:58.813Z,81.57
2018-08-07T22:03:28.587Z,82.42
2018-08-07T22:05:57.851Z,82.18
2018-08-07T22:08:33.479Z,80.43
2018-08-07T22:11:02.832Z,82.15
2018-08-07T22:13:32.155Z,83.08
2018-08-07T22:16:01.432Z,82.43
2018-08-07T22:18:30.733Z,82.04
2018-08-07T22:21:00.011Z,82.43
2018-08-07T22:23:29.283Z,81.97
2018-08-07T22:25:58.601Z,82.42
2018-08-07T22:28:27.891Z,82.57
2018-08-07T22:30:57.190Z,82.93
2018-08-07T22:33:26.507Z,83.07
2018-08-07T22:35:55.808Z,82.10
2018-08-07T22:38:25.067Z,81.24
2018-08-07T22:40:54.355Z,82.04
2018-08-07T22:43:23.670Z,83.22
2018-08-07T22:45:53.042Z,84.05
2018-08-07T22:48:22.338Z,83.69
2018-08-07T22:50:51.635Z,81.46
2018-08-07T22:53:20.906Z,81.46
2018-08-07T22:55:50.278Z,84.02
2018-08-07T22:58:19.624Z,84.24
2018-08-07T23:00:48.920Z,84.12
2018-08-07T23:03:18.295Z,84.13
2018-08-07T23:05:47.641Z,84.15
2018-08-07T23:08:17.080Z,84.58
2018-08-07T23:10:46.628Z,83.30
2018-08-07T23:13:15.930Z,83.43
2018-08-07T23:15:45.160Z,83.69
2018-08-07T23:18:14.419Z,83.49
2018-08-07T23:20:43.894Z,84.14
2018-08-07T23:23:13.215Z,83.90
2018-08-07T23:25:42.511Z,82.34
2018-08-07T23:28:11.826Z,82.33
2018-08-07T23:30:41.075Z,81.82
2018-08-07T23:33:10.542Z,82.39
2018-08-07T23:35:39.787Z,81.68
2018-08-07T23:38:09.163Z,78.47
2018-08-07T23:40:38.514Z,80.61
2018-08-07T23:43:07.763Z,80.41
2018-08-07T23:45:37.111Z,79.21
2018-08-07T23:48:06.365Z,79.86
2018-08-07T23:50:35.784Z,80.94
2018-08-07T23:53:05.095Z,78.93
2018-08-07T23:55:34.421Z,79.97
2018-08-07T23:58:03.723Z,81.72
